Cuyahoga County Airport


Codes: KCGF/CGF
Name: Cuyahoga County Airport
City: Cleveland
Country: United States
Elevation: 879 ft.
Website:
Wikipedia:

Photos at Cuyahoga County Airport


   Photos courtesy of SpottingLog. You can add your own sightings and photos by signing up for a free trial today.



No photos found.

Weather at Cuyahoga County Airport


Time (UTC)DescriptionTempratureWindCloud coverageVisibilityPressureHumidity
13-Jun-2024 03:00Few Clouds23°C7 mph, S23%10000m1014hPa51%
13-Jun-2024 06:00Scattered Clouds20°C7 mph, S25%10000m1014hPa63%
13-Jun-2024 09:00Few Clouds16°C9 mph, S18%10000m1014hPa75%
13-Jun-2024 12:00Scattered Clouds19°C9 mph, S32%10000m1014hPa68%
13-Jun-2024 15:00Few Clouds25°C11 mph, SW22%10000m1014hPa50%
13-Jun-2024 18:00Scattered Clouds27°C11 mph, SW31%10000m1013hPa49%
13-Jun-2024 21:00Overcast Clouds26°C11 mph, SW94%10000m1012hPa50%
14-Jun-2024 00:00Broken Clouds25°C11 mph, SW59%10000m1012hPa61%
14-Jun-2024 03:00Broken Clouds23°C11 mph, SW67%10000m1011hPa64%
14-Jun-2024 06:00Light Rain18°C7 mph, SW72%10000m1011hPa94%
14-Jun-2024 09:00Moderate Rain19°C9 mph, SW100%10000m1011hPa97%
14-Jun-2024 12:00Light Rain19°C7 mph, W100%4636m1012hPa98%
14-Jun-2024 15:00Moderate Rain19°C7 mph, NW84%10000m1014hPa93%
14-Jun-2024 18:00Broken Clouds22°C9 mph, N63%10000m1014hPa56%
14-Jun-2024 21:00Clear Sky21°C11 mph, N0%10000m1014hPa59%
15-Jun-2024 00:00Clear Sky18°C11 mph, N0%10000m1016hPa68%
15-Jun-2024 03:00Clear Sky15°C7 mph, N0%10000m1018hPa75%
15-Jun-2024 06:00Clear Sky13°C4 mph, NE0%10000m1018hPa81%
15-Jun-2024 09:00Clear Sky13°C4 mph, NE0%10000m1019hPa89%
15-Jun-2024 12:00Clear Sky16°C2 mph, NE6%10000m1020hPa79%
15-Jun-2024 15:00Broken Clouds21°C7 mph, N60%10000m1021hPa52%
15-Jun-2024 18:00Scattered Clouds22°C9 mph, N32%10000m1020hPa43%
15-Jun-2024 21:00Broken Clouds22°C7 mph, N51%10000m1019hPa41%
16-Jun-2024 00:00Broken Clouds19°C7 mph, E67%10000m1019hPa63%
16-Jun-2024 03:00Broken Clouds15°C4 mph, E53%10000m1020hPa67%
16-Jun-2024 06:00Broken Clouds15°C7 mph, SE75%10000m1018hPa61%
16-Jun-2024 09:00Overcast Clouds14°C7 mph, SE90%10000m1018hPa70%
16-Jun-2024 12:00Overcast Clouds17°C7 mph, SE96%10000m1018hPa66%
16-Jun-2024 15:00Broken Clouds24°C7 mph, S83%10000m1017hPa50%
16-Jun-2024 18:00Overcast Clouds27°C7 mph, S92%10000m1015hPa41%
16-Jun-2024 21:00Broken Clouds28°C9 mph, SW65%10000m1014hPa43%
17-Jun-2024 00:00Scattered Clouds25°C9 mph, SW32%10000m1014hPa65%
17-Jun-2024 03:00Clear Sky22°C7 mph, S3%10000m1015hPa77%
17-Jun-2024 06:00Light Rain21°C7 mph, S16%10000m1015hPa92%
17-Jun-2024 09:00Light Rain20°C9 mph, S100%10000m1016hPa96%
17-Jun-2024 12:00Light Rain22°C7 mph, S97%10000m1017hPa94%
17-Jun-2024 15:00Broken Clouds27°C9 mph, SW51%10000m1017hPa69%
17-Jun-2024 18:00Broken Clouds31°C9 mph, SW72%10000m1017hPa56%
17-Jun-2024 21:00Overcast Clouds31°C9 mph, SW98%10000m1016hPa53%
18-Jun-2024 00:00Broken Clouds28°C7 mph, SW76%10000m1017hPa69%